createdAt,value
2023-05-05T00:01:16.481Z,93.90
2023-05-05T00:03:43.411Z,94.60
2023-05-05T00:06:10.486Z,94.10
2023-05-05T00:08:37.507Z,94.00
2023-05-05T00:11:04.313Z,94.80
2023-05-05T00:13:31.319Z,94.00
2023-05-05T00:15:58.174Z,93.80
2023-05-05T00:18:25.007Z,94.00
2023-05-05T00:20:52.153Z,94.10
2023-05-05T00:23:19.641Z,94.00
2023-05-05T00:25:46.736Z,94.30
2023-05-05T00:28:14.142Z,94.40
2023-05-05T00:30:41.167Z,94.00
2023-05-05T00:33:08.430Z,94.10
2023-05-05T00:35:35.148Z,94.10
2023-05-05T00:38:02.891Z,94.00
2023-05-05T00:40:29.738Z,94.20
2023-05-05T00:42:56.544Z,94.20
2023-05-05T00:45:23.385Z,94.50
2023-05-05T00:47:58.912Z,94.10
2023-05-05T00:50:29.234Z,94.00
2023-05-05T00:53:03.859Z,94.40
2023-05-05T00:55:31.743Z,94.20
2023-05-05T00:57:59.157Z,94.60
2023-05-05T01:00:27.406Z,94.60
2023-05-05T01:02:55.621Z,95.30
2023-05-05T01:05:24.056Z,94.80
2023-05-05T01:08:41.374Z,94.90
2023-05-05T01:11:22.689Z,94.90
2023-05-05T01:14:16.593Z,95.10
2023-05-05T01:17:08.994Z,95.10
2023-05-05T01:19:54.303Z,95.30
2023-05-05T01:22:27.239Z,95.10
2023-05-05T01:25:12.330Z,95.20
2023-05-05T01:27:49.729Z,95.20
2023-05-05T01:30:39.186Z,95.30
2023-05-05T01:33:11.226Z,95.10
2023-05-05T01:35:45.606Z,95.50
2023-05-05T01:38:19.384Z,95.30
2023-05-05T01:40:51.268Z,95.20
2023-05-05T01:43:22.327Z,95.70
2023-05-05T01:45:51.424Z,95.70
2023-05-05T01:48:20.392Z,96.20
2023-05-05T01:50:49.925Z,96.60
2023-05-05T01:53:19.982Z,96.70
2023-05-05T01:55:49.234Z,96.40
2023-05-05T01:58:16.807Z,96.30
2023-05-05T02:00:44.788Z,96.20
2023-05-05T02:03:14.430Z,96.40
2023-05-05T02:05:43.414Z,96.00
2023-05-05T02:08:11.387Z,96.20
2023-05-05T02:10:40.779Z,96.10
2023-05-05T02:13:10.339Z,96.20
2023-05-05T02:15:38.229Z,96.40
2023-05-05T02:18:09.436Z,96.40
2023-05-05T02:20:38.437Z,96.90
2023-05-05T02:23:07.697Z,96.80
2023-05-05T02:25:42.125Z,97.10
2023-05-05T02:28:16.983Z,97.30
2023-05-05T02:30:44.305Z,97.60
2023-05-05T02:33:12.194Z,97.90
2023-05-05T02:35:41.130Z,98.00
2023-05-05T02:38:17.434Z,98.10
2023-05-05T02:40:49.627Z,98.30
2023-05-05T02:43:20.697Z,98.50
2023-05-05T02:45:48.111Z,98.70
2023-05-05T02:48:15.907Z,98.80
2023-05-05T02:50:42.785Z,99.20
2023-05-05T02:53:16.200Z,99.50
2023-05-05T02:55:53.541Z,99.90
2023-05-05T02:58:34.514Z,99.90
2023-05-05T03:01:32.378Z,99.90
2023-05-05T03:04:14.635Z,99.90
2023-05-05T03:06:49.085Z,99.90
2023-05-05T03:09:26.343Z,99.90
2023-05-05T03:12:06.987Z,99.90
2023-05-05T03:14:45.903Z,99.90
2023-05-05T03:17:18.166Z,99.90
2023-05-05T03:19:46.001Z,99.90
2023-05-05T03:22:13.064Z,99.90
2023-05-05T03:24:49.999Z,99.90
2023-05-05T03:27:17.602Z,99.90
2023-05-05T03:29:44.442Z,99.90
2023-05-05T03:32:13.812Z,99.90
2023-05-05T03:34:41.761Z,99.90
2023-05-05T03:37:09.000Z,99.90
2023-05-05T03:39:37.313Z,99.90
2023-05-05T03:42:04.912Z,99.90
2023-05-05T03:44:33.311Z,99.90
2023-05-05T03:47:00.216Z,99.90
2023-05-05T03:49:28.551Z,99.90
2023-05-05T03:51:55.463Z,99.90
2023-05-05T03:54:22.452Z,99.90
2023-05-05T03:56:49.298Z,99.90
2023-05-05T03:59:16.099Z,99.90
2023-05-05T04:01:44.960Z,99.90
2023-05-05T04:04:11.816Z,99.90
2023-05-05T04:06:38.586Z,99.90
2023-05-05T04:09:06.062Z,99.90
2023-05-05T04:11:32.962Z,99.90
2023-05-05T04:13:59.949Z,99.90
2023-05-05T04:16:28.925Z,99.90
2023-05-05T04:18:56.668Z,99.90
2023-05-05T04:21:23.625Z,99.90
2023-05-05T04:23:50.505Z,99.90
2023-05-05T04:26:17.514Z,99.90
2023-05-05T04:28:45.252Z,99.90
2023-05-05T04:31:12.251Z,99.90
2023-05-05T04:33:41.856Z,99.90
2023-05-05T04:36:08.998Z,99.90
2023-05-05T04:38:36.590Z,99.90
2023-05-05T04:41:07.363Z,99.90
2023-05-05T04:43:35.841Z,99.90
2023-05-05T04:46:03.219Z,99.90
2023-05-05T04:48:34.145Z,99.90
2023-05-05T04:51:05.042Z,99.90
2023-05-05T04:53:32.269Z,99.90
2023-05-05T04:56:00.825Z,99.90
2023-05-05T04:58:28.601Z,99.90
2023-05-05T05:00:55.662Z,99.90
2023-05-05T05:03:22.828Z,99.90
2023-05-05T05:05:49.742Z,99.90
2023-05-05T05:08:17.251Z,99.90
2023-05-05T05:10:44.576Z,99.90
2023-05-05T05:13:12.526Z,99.90
2023-05-05T05:15:40.579Z,99.90
2023-05-05T05:18:07.430Z,99.90
2023-05-05T05:20:35.012Z,99.90
2023-05-05T05:23:02.319Z,99.90
2023-05-05T05:25:31.290Z,99.90
2023-05-05T05:28:09.034Z,99.90
2023-05-05T05:30:39.328Z,99.90
2023-05-05T05:33:07.964Z,99.90
2023-05-05T05:35:34.767Z,99.90
2023-05-05T05:38:01.622Z,99.90
2023-05-05T05:40:28.459Z,99.90
2023-05-05T05:42:56.058Z,99.90
2023-05-05T05:45:24.530Z,99.90
2023-05-05T05:47:52.053Z,99.90
2023-05-05T05:50:18.948Z,99.90
2023-05-05T05:52:45.855Z,99.90
2023-05-05T05:55:12.902Z,99.90
2023-05-05T05:57:40.514Z,99.90
2023-05-05T06:00:10.018Z,99.90
2023-05-05T06:02:42.391Z,99.90
2023-05-05T06:05:13.815Z,99.90
2023-05-05T06:07:42.389Z,99.90
2023-05-05T06:10:25.672Z,99.90
2023-05-05T06:12:57.839Z,99.90
2023-05-05T06:15:25.763Z,99.90
2023-05-05T06:17:52.913Z,99.90
2023-05-05T06:20:19.784Z,99.90
2023-05-05T06:22:46.596Z,99.90
2023-05-05T06:25:13.441Z,99.90
2023-05-05T06:27:40.319Z,99.90
2023-05-05T06:30:09.390Z,99.90
2023-05-05T06:32:36.502Z,99.90
2023-05-05T06:35:03.484Z,99.90
2023-05-05T06:37:30.320Z,99.90
2023-05-05T06:39:57.102Z,99.90
2023-05-05T06:42:23.957Z,99.90
2023-05-05T06:44:52.492Z,99.90
2023-05-05T06:47:19.366Z,99.90
2023-05-05T06:49:46.119Z,99.90
2023-05-05T06:52:12.882Z,99.90
2023-05-05T06:54:39.686Z,99.90
2023-05-05T06:57:06.583Z,99.90
2023-05-05T06:59:33.335Z,99.90
2023-05-05T07:02:00.348Z,99.90
2023-05-05T07:04:27.112Z,99.90
2023-05-05T07:06:55.164Z,99.90
2023-05-05T07:09:21.927Z,99.90
2023-05-05T07:11:48.732Z,99.90
2023-05-05T07:14:15.603Z,99.90
2023-05-05T07:16:42.526Z,99.90
2023-05-05T07:19:09.377Z,99.90
2023-05-05T07:21:36.785Z,99.90
2023-05-05T07:24:04.033Z,99.90
2023-05-05T07:26:30.886Z,99.90
2023-05-05T07:28:58.930Z,99.90
2023-05-05T07:31:26.392Z,99.90
2023-05-05T07:33:53.452Z,99.90
2023-05-05T07:36:20.661Z,99.90
2023-05-05T07:38:47.543Z,99.90
2023-05-05T07:41:14.301Z,99.90
2023-05-05T07:43:44.199Z,99.90
2023-05-05T07:46:11.877Z,99.90
2023-05-05T07:48:41.580Z,99.90
2023-05-05T07:51:09.174Z,99.90
2023-05-05T07:53:36.322Z,99.90
2023-05-05T07:56:03.452Z,99.90
2023-05-05T07:58:30.262Z,99.90
2023-05-05T08:00:57.103Z,99.90
2023-05-05T08:03:24.839Z,99.90
2023-05-05T08:05:54.396Z,99.90
2023-05-05T08:08:24.425Z,99.90
2023-05-05T08:10:52.856Z,99.90
2023-05-05T08:13:19.729Z,99.90
2023-05-05T08:15:46.637Z,99.90
2023-05-05T08:18:13.817Z,99.90
2023-05-05T08:20:40.616Z,99.90
2023-05-05T08:23:07.373Z,99.90
2023-05-05T08:25:34.257Z,99.90
2023-05-05T08:28:01.130Z,99.90
2023-05-05T08:30:28.730Z,99.90
2023-05-05T08:32:55.790Z,99.90
2023-05-05T08:35:22.637Z,99.90
2023-05-05T08:37:51.493Z,99.90
2023-05-05T08:40:21.073Z,99.90
2023-05-05T08:42:48.215Z,99.90
2023-05-05T08:45:15.828Z,99.90
2023-05-05T08:47:43.421Z,99.90
2023-05-05T08:50:11.400Z,99.90
2023-05-05T08:52:45.764Z,99.90
2023-05-05T08:55:27.737Z,99.90
2023-05-05T08:57:58.266Z,99.90
2023-05-05T09:00:27.060Z,99.90
2023-05-05T09:02:58.553Z,99.90
2023-05-05T09:05:26.523Z,99.90
2023-05-05T09:07:53.624Z,99.90
2023-05-05T09:10:20.845Z,99.90
2023-05-05T09:12:49.511Z,99.90
2023-05-05T09:15:16.532Z,99.90
2023-05-05T09:17:44.116Z,99.90
2023-05-05T09:20:13.503Z,99.90
2023-05-05T09:22:45.502Z,99.90
2023-05-05T09:25:14.858Z,99.90
2023-05-05T09:27:47.136Z,99.90
2023-05-05T09:30:23.802Z,99.90
2023-05-05T09:32:52.714Z,99.90
2023-05-05T09:35:21.262Z,99.90
2023-05-05T09:37:48.122Z,99.90
2023-05-05T09:40:17.332Z,99.90
2023-05-05T09:42:44.896Z,99.90
2023-05-05T09:45:18.065Z,99.90
2023-05-05T09:47:46.392Z,99.90
2023-05-05T09:50:18.843Z,99.90
2023-05-05T09:52:57.179Z,99.90
2023-05-05T09:55:24.924Z,99.90
2023-05-05T09:57:52.188Z,99.90
2023-05-05T10:00:19.633Z,99.90
2023-05-05T10:02:46.661Z,99.90
2023-05-05T10:05:15.612Z,99.90
2023-05-05T10:07:44.278Z,99.90
2023-05-05T10:10:13.291Z,99.90
2023-05-05T10:12:40.626Z,99.90
2023-05-05T10:15:09.254Z,99.90
2023-05-05T10:17:38.204Z,99.90
2023-05-05T10:20:07.463Z,99.90
2023-05-05T10:22:35.254Z,99.90
2023-05-05T10:25:10.786Z,99.90
2023-05-05T10:27:52.931Z,99.90
2023-05-05T10:30:26.538Z,99.90
2023-05-05T10:33:17.398Z,99.90
2023-05-05T10:35:49.568Z,99.90
2023-05-05T10:38:17.302Z,99.90
2023-05-05T10:40:48.369Z,99.90
2023-05-05T10:43:15.688Z,99.90
2023-05-05T10:45:43.239Z,99.90
2023-05-05T10:48:21.403Z,99.90
2023-05-05T10:50:53.651Z,99.90
2023-05-05T10:53:31.971Z,99.90
2023-05-05T10:56:17.160Z,99.90
2023-05-05T10:58:55.545Z,99.90
2023-05-05T11:01:31.554Z,99.90
2023-05-05T11:04:21.424Z,99.90
2023-05-05T11:07:13.721Z,99.90
2023-05-05T11:10:04.706Z,99.30
2023-05-05T11:12:33.114Z,99.90
2023-05-05T11:15:22.022Z,99.90
2023-05-05T11:17:48.971Z,99.90
2023-05-05T11:20:15.896Z,99.90
2023-05-05T11:23:04.881Z,99.90
2023-05-05T11:25:35.335Z,99.90
2023-05-05T11:28:17.498Z,99.90
2023-05-05T11:30:56.916Z,99.70
2023-05-05T11:33:31.345Z,99.90
2023-05-05T11:36:05.819Z,99.80
2023-05-05T11:38:41.720Z,99.90
2023-05-05T11:41:32.572Z,99.60
2023-05-05T11:44:19.682Z,99.80
2023-05-05T11:46:52.535Z,99.90
2023-05-05T11:49:39.187Z,99.90
2023-05-05T11:52:07.390Z,99.90
2023-05-05T11:54:47.409Z,98.90
2023-05-05T11:57:15.720Z,99.90
2023-05-05T11:59:54.365Z,99.90
2023-05-05T12:02:22.771Z,99.70
2023-05-05T12:04:50.779Z,99.90
2023-05-05T12:07:19.290Z,99.90
2023-05-05T12:09:47.428Z,99.90
2023-05-05T12:12:15.660Z,99.90
2023-05-05T12:14:47.423Z,99.90
2023-05-05T12:17:14.431Z,99.90
2023-05-05T12:19:53.824Z,99.90
2023-05-05T12:22:26.207Z,99.90
2023-05-05T12:24:57.634Z,99.90
2023-05-05T12:27:26.239Z,99.90
2023-05-05T12:29:57.496Z,99.90
2023-05-05T12:32:28.039Z,99.90
2023-05-05T12:34:57.350Z,99.90
2023-05-05T12:37:25.971Z,99.90
2023-05-05T12:39:54.947Z,99.90
2023-05-05T12:42:22.503Z,99.90
2023-05-05T12:44:49.712Z,99.90
2023-05-05T12:47:31.470Z,99.90
2023-05-05T12:50:00.263Z,99.90
2023-05-05T12:52:45.797Z,99.90
2023-05-05T12:55:13.214Z,99.90
2023-05-05T12:58:00.730Z,99.90
2023-05-05T13:00:29.093Z,99.90
2023-05-05T13:02:56.797Z,99.90
2023-05-05T13:05:31.795Z,99.90
2023-05-05T13:07:58.834Z,99.90
2023-05-05T13:10:25.666Z,99.90
2023-05-05T13:12:55.450Z,99.90
2023-05-05T13:15:22.454Z,99.90
2023-05-05T13:17:49.318Z,99.90
2023-05-05T13:20:16.889Z,99.90
2023-05-05T13:22:43.677Z,99.90
2023-05-05T13:25:10.771Z,99.90
2023-05-05T13:27:37.763Z,99.90
2023-05-05T13:30:05.018Z,99.90
2023-05-05T13:32:31.821Z,99.90
2023-05-05T13:34:58.610Z,99.90
2023-05-05T13:37:25.560Z,99.90
2023-05-05T13:39:52.464Z,99.90
2023-05-05T13:42:19.236Z,99.90
2023-05-05T13:44:46.483Z,99.90
2023-05-05T13:47:14.071Z,99.90
2023-05-05T13:49:41.212Z,99.90
2023-05-05T13:52:08.026Z,99.90
2023-05-05T13:54:34.784Z,99.90
2023-05-05T13:57:02.908Z,99.90
2023-05-05T13:59:29.957Z,99.90
2023-05-05T14:01:56.726Z,99.90
2023-05-05T14:04:23.501Z,99.90
2023-05-05T14:06:50.362Z,99.90
2023-05-05T14:09:17.579Z,99.90
2023-05-05T14:11:44.449Z,99.90
2023-05-05T14:14:11.253Z,99.90
2023-05-05T14:16:38.077Z,99.90
2023-05-05T14:19:04.930Z,99.90
2023-05-05T14:21:32.525Z,99.90
2023-05-05T14:23:59.470Z,99.90
2023-05-05T14:26:26.328Z,99.90
2023-05-05T14:28:53.109Z,99.90
2023-05-05T14:31:20.085Z,99.90
2023-05-05T14:33:46.949Z,99.90
2023-05-05T14:36:14.223Z,99.90
2023-05-05T14:38:42.720Z,99.90
2023-05-05T14:41:09.607Z,99.90
2023-05-05T14:43:36.883Z,99.90
2023-05-05T14:46:06.678Z,99.90
2023-05-05T14:48:34.237Z,99.90
2023-05-05T14:51:01.019Z,99.90
2023-05-05T14:53:28.854Z,99.90
2023-05-05T14:55:56.084Z,99.90
2023-05-05T14:58:24.474Z,99.90
2023-05-05T15:00:52.640Z,99.90
2023-05-05T15:03:19.553Z,99.90
2023-05-05T15:05:46.406Z,99.90
2023-05-05T15:08:14.442Z,99.90
2023-05-05T15:10:41.239Z,99.90
2023-05-05T15:13:08.145Z,99.90
2023-05-05T15:15:34.990Z,99.90
2023-05-05T15:18:01.813Z,99.90
2023-05-05T15:20:28.835Z,99.90
2023-05-05T15:22:55.710Z,99.90
2023-05-05T15:25:23.740Z,99.90
2023-05-05T15:27:50.717Z,99.90
2023-05-05T15:30:17.579Z,99.90
2023-05-05T15:32:44.436Z,99.90
2023-05-05T15:35:11.249Z,99.90
2023-05-05T15:37:38.070Z,99.90
2023-05-05T15:40:05.482Z,99.90
2023-05-05T15:42:33.717Z,99.90
2023-05-05T15:45:04.407Z,99.90
2023-05-05T15:47:31.658Z,99.90
2023-05-05T15:49:58.471Z,99.90
2023-05-05T15:52:25.259Z,99.90
2023-05-05T15:54:52.132Z,99.90
2023-05-05T15:57:18.925Z,99.90
2023-05-05T15:59:45.802Z,99.90
2023-05-05T16:02:12.779Z,99.90
2023-05-05T16:04:39.726Z,99.90
2023-05-05T16:07:06.562Z,99.90
2023-05-05T16:09:33.359Z,99.90
2023-05-05T16:12:00.320Z,99.90
2023-05-05T16:14:27.843Z,99.90
2023-05-05T16:16:55.416Z,99.90
2023-05-05T16:19:23.283Z,99.90
2023-05-05T16:21:50.072Z,99.90
2023-05-05T16:24:17.070Z,99.90
2023-05-05T16:26:44.343Z,99.90
2023-05-05T16:29:11.913Z,99.90
2023-05-05T16:31:38.854Z,99.90
2023-05-05T16:34:05.804Z,99.90
2023-05-05T16:36:32.603Z,99.90
2023-05-05T16:38:59.438Z,99.90
2023-05-05T16:41:26.690Z,99.90
2023-05-05T16:43:53.677Z,99.90
2023-05-05T16:46:20.527Z,99.90
2023-05-05T16:48:47.356Z,99.90
2023-05-05T16:51:14.155Z,99.90
2023-05-05T16:53:41.032Z,99.90
2023-05-05T16:56:11.060Z,99.90
2023-05-05T16:58:37.828Z,99.90
2023-05-05T17:01:04.766Z,99.90
2023-05-05T17:03:31.693Z,99.90
2023-05-05T17:05:58.742Z,99.90
2023-05-05T17:08:25.634Z,99.90
2023-05-05T17:10:52.396Z,99.90
2023-05-05T17:13:19.382Z,99.90
2023-05-05T17:15:46.530Z,99.90
2023-05-05T17:18:13.355Z,99.90
2023-05-05T17:20:40.226Z,99.90
2023-05-05T17:23:08.499Z,99.90
2023-05-05T17:25:35.822Z,99.90
2023-05-05T17:28:02.693Z,99.90
2023-05-05T17:30:29.477Z,99.90
2023-05-05T17:32:56.843Z,99.90
2023-05-05T17:35:23.795Z,99.90
2023-05-05T17:37:50.572Z,99.90
2023-05-05T17:40:17.348Z,99.90
2023-05-05T17:42:44.365Z,99.90
2023-05-05T17:45:11.888Z,99.90
2023-05-05T17:47:38.955Z,99.90
2023-05-05T17:50:06.328Z,99.90
2023-05-05T17:52:33.050Z,99.90
2023-05-05T17:54:59.860Z,99.90
2023-05-05T17:57:26.653Z,99.90
2023-05-05T17:59:53.788Z,99.90
2023-05-05T18:02:21.590Z,99.90
2023-05-05T18:04:48.430Z,99.90
2023-05-05T18:07:15.278Z,99.90
2023-05-05T18:09:42.464Z,99.90
2023-05-05T18:12:09.382Z,99.90
2023-05-05T18:14:36.597Z,99.90
2023-05-05T18:17:04.461Z,99.90
2023-05-05T18:19:31.274Z,99.90
2023-05-05T18:21:58.239Z,99.90
2023-05-05T18:24:25.181Z,99.90
2023-05-05T18:26:52.877Z,99.90
2023-05-05T18:29:21.713Z,99.90
2023-05-05T18:31:51.317Z,99.90
2023-05-05T18:34:21.042Z,99.90
2023-05-05T18:36:50.073Z,99.90
2023-05-05T18:39:17.702Z,99.90
2023-05-05T18:41:44.486Z,99.90
2023-05-05T18:44:11.486Z,99.90
2023-05-05T18:46:38.509Z,99.90
2023-05-05T18:49:05.367Z,99.90
2023-05-05T18:51:32.205Z,99.90
2023-05-05T18:54:00.609Z,99.90
2023-05-05T18:56:27.574Z,99.90
2023-05-05T18:58:54.512Z,99.90
2023-05-05T19:01:21.489Z,99.90
2023-05-05T19:03:48.626Z,99.90
2023-05-05T19:06:16.214Z,99.90
2023-05-05T19:08:45.010Z,99.90
2023-05-05T19:11:12.447Z,99.90
2023-05-05T19:16:11.680Z,99.90
2023-05-05T19:18:38.975Z,99.90
2023-05-05T19:21:06.174Z,99.90
2023-05-05T19:23:33.305Z,99.90
2023-05-05T19:26:00.258Z,99.90
2023-05-05T19:28:27.194Z,99.90
2023-05-05T19:30:54.169Z,99.90
2023-05-05T19:33:21.231Z,99.90
2023-05-05T19:35:48.034Z,99.90
2023-05-05T19:38:15.044Z,99.90
2023-05-05T19:40:41.874Z,99.90
2023-05-05T19:43:09.060Z,99.90
2023-05-05T19:45:35.828Z,99.90
2023-05-05T19:48:02.946Z,99.90
2023-05-05T19:50:30.578Z,99.90
2023-05-05T19:52:57.793Z,99.90
2023-05-05T19:55:24.744Z,99.90
2023-05-05T19:57:51.623Z,99.90
2023-05-05T20:00:18.572Z,99.90
2023-05-05T20:02:45.610Z,99.90
2023-05-05T20:05:17.233Z,99.90
2023-05-05T20:07:46.920Z,99.90
2023-05-05T20:10:14.170Z,99.90
2023-05-05T20:12:47.559Z,99.90
2023-05-05T20:15:20.228Z,99.90
2023-05-05T20:17:48.149Z,99.90
2023-05-05T20:20:21.774Z,99.90
2023-05-05T20:22:49.425Z,99.90
2023-05-05T20:25:16.629Z,99.90
2023-05-05T20:27:45.157Z,99.90
2023-05-05T20:30:12.296Z,99.90
2023-05-05T20:32:39.271Z,99.90
2023-05-05T20:35:07.241Z,99.90
2023-05-05T20:37:34.121Z,99.90
2023-05-05T20:40:00.953Z,99.90
2023-05-05T20:42:27.987Z,99.90
2023-05-05T20:44:54.914Z,99.90
2023-05-05T20:47:21.802Z,99.90
2023-05-05T20:49:48.589Z,99.90
2023-05-05T20:52:15.535Z,99.90
2023-05-05T20:54:42.295Z,99.90
2023-05-05T20:57:09.186Z,99.90
2023-05-05T20:59:35.945Z,99.90
2023-05-05T21:02:02.765Z,99.90
2023-05-05T21:04:29.759Z,99.90
2023-05-05T21:06:57.271Z,99.90
2023-05-05T21:09:24.315Z,99.90
2023-05-05T21:11:51.202Z,99.90
2023-05-05T21:14:18.030Z,99.90
2023-05-05T21:16:44.882Z,99.90
2023-05-05T21:19:11.741Z,99.90
2023-05-05T21:21:38.577Z,99.90
2023-05-05T21:24:07.731Z,99.90
2023-05-05T21:26:35.030Z,99.90
2023-05-05T21:29:01.863Z,99.90
2023-05-05T21:31:28.683Z,99.90
2023-05-05T21:33:55.436Z,99.90
2023-05-05T21:36:22.258Z,99.90
2023-05-05T21:38:49.609Z,99.90
2023-05-05T21:41:16.742Z,99.90
2023-05-05T21:43:43.607Z,99.90
2023-05-05T21:46:10.633Z,99.90
2023-05-05T21:48:39.026Z,99.90
2023-05-05T21:51:06.657Z,99.90
2023-05-05T21:53:33.583Z,99.90
2023-05-05T21:56:00.999Z,99.90
2023-05-05T21:58:27.818Z,99.90
2023-05-05T22:00:54.805Z,99.90
2023-05-05T22:03:21.681Z,99.90
2023-05-05T22:05:48.512Z,99.90
2023-05-05T22:08:33.967Z,99.90
2023-05-05T22:11:01.576Z,99.90
2023-05-05T22:13:28.410Z,99.90
2023-05-05T22:15:55.411Z,99.90
2023-05-05T22:18:22.291Z,99.90
2023-05-05T22:20:49.227Z,99.90
2023-05-05T22:23:16.416Z,99.90
2023-05-05T22:25:44.413Z,99.90
2023-05-05T22:28:11.727Z,99.90
2023-05-05T22:30:38.569Z,99.90
2023-05-05T22:33:05.551Z,99.90
2023-05-05T22:35:32.630Z,99.90
2023-05-05T22:37:59.494Z,99.90
2023-05-05T22:40:26.282Z,99.90
2023-05-05T22:42:53.064Z,99.90
2023-05-05T22:45:19.997Z,99.90
2023-05-05T22:47:46.890Z,99.90
2023-05-05T22:50:13.821Z,99.90
2023-05-05T22:52:40.645Z,99.90
2023-05-05T22:55:08.386Z,99.90
2023-05-05T22:57:36.151Z,99.90
2023-05-05T23:00:05.097Z,99.90
2023-05-05T23:02:32.597Z,99.90
2023-05-05T23:04:59.469Z,99.90
2023-05-05T23:07:26.370Z,99.90
2023-05-05T23:09:53.485Z,99.90
2023-05-05T23:12:20.370Z,99.90
2023-05-05T23:14:47.233Z,99.90
2023-05-05T23:17:14.084Z,99.90
2023-05-05T23:19:40.874Z,99.90
2023-05-05T23:22:07.694Z,99.90
2023-05-05T23:24:34.536Z,99.90
2023-05-05T23:27:02.039Z,99.90
2023-05-05T23:29:29.235Z,99.90
2023-05-05T23:31:55.996Z,99.90
2023-05-05T23:34:22.876Z,99.90
2023-05-05T23:36:50.431Z,99.90
2023-05-05T23:39:17.235Z,99.90
2023-05-05T23:41:44.077Z,99.90
2023-05-05T23:44:10.885Z,99.90
2023-05-05T23:46:37.767Z,99.90
2023-05-05T23:49:04.582Z,99.90
2023-05-05T23:51:31.623Z,99.90
2023-05-05T23:53:58.472Z,99.90
2023-05-05T23:56:26.146Z,99.90
2023-05-05T23:58:53.604Z,99.90
